por Rui Almeida

16 DE AGOSTO 2019

 

 

 

 

 

 

PRIMEIRA VITÓRIA DE GUSTAVO GONÇALVES NOS ASES

VITOR FERNANDES  REGRESSA PARA VENCER

 

 

Disputou-se em Braga já no passado mês de Julho a quinta jornada do troféu ASES PELOS ARES.

O traçado utilizado foi o chamado “traçado do mundial”, contou com a presença de 21 pilotos, mais uma vez num ambiente de grande confraternização.

Dois factos se salientaram do resultado da jornada:

Em primeiro lugar e finalmente, a primeira vitória entre os ASES de Gustavo Gonçalves.

Gonçalves já vinha a prometer há algum tempo, mas a vitória teimava em não acontecer.

Já este ano no Cabo do Mundo, Gonçalves não venceu devido a um erro de palmatória quando liderava sozinho e inclusivamente na visita anterior a Braga, tinha liderado uma das mangas quase até ao baixar da bandeira, sendo ultrapassado praticamente em cima da meta.

Desta vez não vacilou e finalmente alcançou um dos seus objectivos.

O outro facto foi o consolidar da liderança do campeonato por parte de João Moreira.

Não venceu nenhuma manga, mas alcançou dois resultados de primeira linha, sendo que na segunda manga, bateu um adversário directo em luta directa – Rui Almeida.

Almeida começou muito bem o campeonato, mas desde a primeira jornada de Braga que tem tido sempre uma “pedra no sapato” e se quiser continuar na luta pelo título, o melhor é “descalçar a bota” e calçar de novo, pois se continuar nesta onda de infelicidade, dificilmente atingirá os seus objectivos.

A primeira manga viu Fernando Gomes a alcançar a pole-position (mais uma!) por boa margem, logo seguido de Jorge Meireles e de Joaquim Oliveira.

Tudo indicava que Gomes iria ter um passeio tranquilo, mas dada a partida, a história foi outra!

Gomes não conseguiu fugir a um pelotão de mais seis “furiosos” que se revezaram na liderança.

No final acabou por vencer um piloto que regressou aos ASES após longa ausência – Vitor Fernandes, logo seguido de Fernando Gomes e de Joaquim Oliveira. A melhor volta foi para Renato Afonso, a sua primeira entre os ASES.

Gustavo Gonçalves que tinha sido um dos infelizes da primeira manga obteve a pole-position para a segunda corrida, logo seguido de outro azarado – Rui Almeida.

Os treinos foram disputados com a pista seca, mas o céu já estava bastante escuro e quando se estava a formar a grelha de partida, começou mesmo a chover.

Foi como se todos entrassem num quarto escuro e tivessem de andar às apalpadelas à procura da saída.

Ninguém sabia como abordar a pista nestas condições e por isso a primeira volta foi de grande confusão.

Gustavo Gonçalves foi quem melhor conseguiu descobrir o “caminho das pedras” mais depressa, abrindo boa margem nas duas voltas iniciais.

A partir daí limitou-se a controlar o andamento dos perseguidores, que foram encurtando a vantagem, mas sem conseguirem chegar ao líder.

Vindo do fundo da grelha, o líder do campeonato João Moreira rapidamente chegou ao terceiro lugar.

Moreira e Rui Almeida envolveram-se então numa luta espectacular pelo segundo lugar com várias trocas de posição ao longo da corrida e mesmo na mesma volta!

No final foi João Moreira que terminou em segundo, obtendo pelo caminho a melhor volta.

Com estes resultados, João Moreira consolidou a sua liderança, abrindo um fosso para trás.

Gustavo Gonçalves, com a sua vitória ascendeu ao segundo lugar, ultrapassando Rui Almeida na classificação.

A próxima jornada corre-se no KIVIKART a 14 de Setembro.

 

CORRIDA 1 KIB - Pista Mundial
TREINOS CORRIDA BEST LAPS
Pos. Kart Piloto Tempo Dif. Pos. Kart Piloto Laps Dif. Best Pos. Kart Piloto Best Dif.
1 27 Fernando Gomes 1:12,008 0,000 1 28 Vitor Fernandes 10 00,000 1:11,992 1 08 Renato Afonso 1:11,953 0,000
2 06 Jorge Meireles 1:12,574 0,566 2 27 Fernando Gomes 10 00,183 1:12,125 2 28 Vitor Fernandes 1:11,992 0,039
3 13 Joaquim Oliveira 1:12,582 0,574 3 13 Joaquim Oliveira 10 00,597 1:12,195 3 06 Jorge Meireles 1:12,097 0,144
4 04 João Moreira 1:12,699 0,691 4 04 João Moreira 10 00,914 1:12,184 4 27 Fernando Gomes 1:12,125 0,172
5 26 Luís Cunha 1:12,711 0,703 5 06 Jorge Meireles 10 01,156 1:12,097 5 04 João Moreira 1:12,184 0,231
6 08 Renato Afonso 1:12,789 0,781 6 26 Luís Cunha 10 01,250 1:12,421 6 13 Joaquim Oliveira 1:12,195 0,242
7 05 Fernando Charais 1:12,790 0,782 7 08 Renato Afonso 10 06,117 1:11,953 7 26 Luís Cunha 1:12,421 0,468
8 09 Rui Almeida JR 1:12,941 0,933 8 09 Rui Almeida JR 10 07,590 1:13,054 8 05 Fernando Charais 1:12,891 0,938
9 19 Gustavo Gonçalves 1:12,980 0,972 9 05 Fernando Charais 10 07,703 1:12,891 9 02 Miguel Bento 1:12,918 0,965
10 28 Vitor Fernandes 1:12,988 0,980 10 02 Miguel Bento 10 10,883 1:12,918 10 09 Rui Almeida JR 1:13,054 1,101
11 20 Rui Almeida 1:13,039 1,031 11 19 Gustavo Gonçalves 10 15,094 1:13,512 11 23 Carlos Almeida 1:13,480 1,527
12 12 João Radi 1:13,246 1,238 12 23 Carlos Almeida 10 15,195 1:13,480 12 19 Gustavo Gonçalves 1:13,512 1,559
13 21 Manuel Fonseca 1:13,938 1,930 13 12 João Radi 10 19,769 1:14,039 13 20 Rui Almeida 1:13,590 1,637
14 18 Ruben Azevedo 1:14,039 2,031 14 20 Rui Almeida 10 20,832 1:13,590 14 12 João Radi 1:14,039 2,086
15 23 Carlos Almeida 1:14,093 2,085 15 01 Nuno Gonçalves 10 24,340 1:14,172 15 16 Helder Oliveira 1:14,039 2,086
16 02 Miguel Bento 1:14,141 2,133 16 17 António Garcia 10 29,051 1:15,273 16 21 Manuel Fonseca 1:14,094 2,141
17 17 António Garcia 1:14,219 2,211 17 18 Ruben Azevedo 10 32,234 1:14,633 17 01 Nuno Gonçalves 1:14,172 2,219
18 01 Nuno Gonçalves 1:14,453 2,445 18 21 Manuel Fonseca 10 32,515 1:14,094 18 18 Ruben Azevedo 1:14,633 2,680
19 16 Helder oliveira 1:18,175 6,167 19 03 Gustavo Coelho 10 39,402 1:15,004 19 03 Gustavo Coelho 1:15,004 3,051
20 03 Gustavo Coelho 1:18,265 6,257 20 16 Helder Oliveira 10 49,863 1:14,039 20 17 António Garcia 1:15,273 3,320
21 24 José Fernandes 1:20,531 8,523 21 24 José Fernandes 10 57,758 1:16,496 21 24 José Fernandes 1:16,496 4,543
CORRIDA 2 KIB - Pista Mundial
TREINOS CORRIDA BEST LAPS
Pos. Kart Piloto Tempo Dif. Pos. Kart Piloto Laps Dif. Best Pos. Kart Piloto Best Dif.
1 24 Gustavo Gonçalves 1:11,778 0,000 1 24 Gustavo Gonçalves 7 00,000 1:37,633 1 12 João Moreira 1:36,312 0,000
2 28 Rui Almeida 1:12,012 0,234 2 12 João Moreira 7 04,180 1:36,312 2 08 Luís Cunha 1:36,641 0,329
3 16 Fernando Charais 1:12,359 0,581 3 28 Rui Almeida 7 04,821 1:41,871 3 26 António Garcia 1:37,043 0,731
4 13 Miguel Bento 1:12,372 0,594 4 23 Rui Almeida JR 7 11,036 1:39,594 4 27 Manuel Fonseca 1:37,467 1,155
5 08 Luís Cunha 1:12,387 0,609 5 16 Fernando Charais 7 12,274 1:41,500 5 24 Gustavo Gonçalves 1:37,633 1,321
6 26 António Garcia 1:12,543 0,765 6 20 Vitor Fernandes 7 14,860 1:39,809 6 23 Rui Almeida JR 1:39,594 3,282
7 07 Jorge Meireles 1:12,727 0,949 7 27 Manuel Fonseca 7 17,993 1:37,467 7 13 Miguel Bento 1:39,637 3,325
8 27 Manuel Fonseca 1:12,930 1,152 8 26 António Garcia 7 19,723 1:37,043 8 20 Vitor Fernandes 1:39,809 3,497
9 23 Rui Almeida JR 1:12,985 1,207 9 01 Ruben Azevedo 7 25,395 1:40,234 9 06 Gustavo Coelho 1:39,992 3,680
10 02 Joaquim Oliveira 1:13,203 1,425 10 07 Jorge Meireles 7 26,887 1:41,054 10 21 Fernando Gomes 1:40,133 3,821
11 21 Fernando Gomes 1:13,219 1,441 11 02 Joaquim Oliveira 7 33,993 1:42,633 11 01 Ruben Azevedo 1:40,234 3,922
12 04 João Radi 1:13,468 1,690 12 13 Miguel Bento 7 34,438 1:39,637 12 07 Jorge Meireles 1:41,054 4,742
13 09 Carlos Almeida 1:13,965 2,187 13 18 Nuno Gonçalves 7 42,227 1:43,269 13 16 Fernando Charais 1:41,500 5,188
14 20 Vitor Fernandes 1:14,055 2,277 14 08 Luís Cunha 7 44,175 1:36,641 14 28 Rui Almeida 1:41,871 5,559
15 06 Gustavo Coelho 1:14,328 2,550 15 09 Carlos Almeida 7 49,465 1:43,453 15 02 Joaquim Oliveira 1:42,633 6,321
16 17 Renato Afonso 1:14,375 2,597 16 17 Renato Afonso 7 50,098 1:44,324 16 18 Nuno Gonçalves 1:43,269 6,957
17 01 Ruben Azevedo 1:14,613 2,835 17 04 João Radi 7 51,786 1:45,125 17 09 Carlos Almeida 1:43,453 7,141
18 05 Helder oliveira 1:15,277 3,499 18 05 Helder oliveira 7 54,340 1:44,558 18 17 Renato Afonso 1:44,324 8,012
19 12 João Moreira 1:15,328 3,550 19 21 Fernando Gomes 7 58,606 1:40,133 19 05 Helder oliveira 1:44,558 8,246
20 18 Nuno Gonçalves 1:16,207 4,429 20 19 José Fernandes 7 1:07,508 1:45,851 20 04 João Radi 1:45,125 8,813
21 19 José Fernandes 1:18,133 6,355 21 06 Gustavo Coelho 7 1:43,504 1:39,992 21 19 José Fernandes 1:45,851 9,539

<< Clique aquipara escrever aos ASES